sensor_id;sensor_type;location;lat;lon;timestamp;temperature;humidity
28520;DHT22;15732;48.534;20.382;2023-03-14T00:01:22;6.70;99.90
28520;DHT22;15732;48.534;20.382;2023-03-14T00:03:54;6.40;99.90
28520;DHT22;15732;48.534;20.382;2023-03-14T00:06:21;6.30;99.90
28520;DHT22;15732;48.534;20.382;2023-03-14T00:08:52;6.20;99.90
28520;DHT22;15732;48.534;20.382;2023-03-14T00:11:23;6.10;99.90
28520;DHT22;15732;48.534;20.382;2023-03-14T00:13:51;6.30;99.90
28520;DHT22;15732;48.534;20.382;2023-03-14T00:16:19;6.30;99.90
28520;DHT22;15732;48.534;20.382;2023-03-14T00:18:50;6.40;99.90
28520;DHT22;15732;48.534;20.382;2023-03-14T00:21:17;6.40;99.90
28520;DHT22;15732;48.534;20.382;2023-03-14T00:23:44;6.40;99.90
28520;DHT22;15732;48.534;20.382;2023-03-14T00:26:14;6.40;99.90
28520;DHT22;15732;48.534;20.382;2023-03-14T00:28:46;6.40;99.90
28520;DHT22;15732;48.534;20.382;2023-03-14T00:31:16;6.50;99.90
28520;DHT22;15732;48.534;20.382;2023-03-14T00:33:44;6.50;99.90
28520;DHT22;15732;48.534;20.382;2023-03-14T00:36:30;6.50;99.90
28520;DHT22;15732;48.534;20.382;2023-03-14T00:38:58;6.30;99.90
28520;DHT22;15732;48.534;20.382;2023-03-14T00:41:25;6.30;99.90
28520;DHT22;15732;48.534;20.382;2023-03-14T00:43:52;6.20;99.90
28520;DHT22;15732;48.534;20.382;2023-03-14T00:46:23;6.00;99.90
28520;DHT22;15732;48.534;20.382;2023-03-14T00:48:51;6.10;99.90
28520;DHT22;15732;48.534;20.382;2023-03-14T00:51:18;5.90;99.90
28520;DHT22;15732;48.534;20.382;2023-03-14T00:53:45;5.80;99.90
28520;DHT22;15732;48.534;20.382;2023-03-14T00:56:17;5.70;99.90
28520;DHT22;15732;48.534;20.382;2023-03-14T00:58:48;5.80;99.90
28520;DHT22;15732;48.534;20.382;2023-03-14T01:01:17;5.90;99.90
28520;DHT22;15732;48.534;20.382;2023-03-14T01:03:46;5.80;99.90
28520;DHT22;15732;48.534;20.382;2023-03-14T01:06:16;5.80;99.90
28520;DHT22;15732;48.534;20.382;2023-03-14T01:08:44;5.80;99.90
28520;DHT22;15732;48.534;20.382;2023-03-14T01:11:17;5.70;99.90
28520;DHT22;15732;48.534;20.382;2023-03-14T01:13:48;5.80;99.90
28520;DHT22;15732;48.534;20.382;2023-03-14T01:16:18;5.60;99.90
28520;DHT22;15732;48.534;20.382;2023-03-14T01:18:49;5.70;99.90
28520;DHT22;15732;48.534;20.382;2023-03-14T01:21:17;5.80;99.90
28520;DHT22;15732;48.534;20.382;2023-03-14T01:23:45;5.80;99.90
28520;DHT22;15732;48.534;20.382;2023-03-14T01:26:14;5.90;99.90
28520;DHT22;15732;48.534;20.382;2023-03-14T01:28:42;5.70;99.90
28520;DHT22;15732;48.534;20.382;2023-03-14T01:31:10;5.60;99.90
28520;DHT22;15732;48.534;20.382;2023-03-14T01:33:38;5.60;99.90
28520;DHT22;15732;48.534;20.382;2023-03-14T01:36:07;5.70;99.90
28520;DHT22;15732;48.534;20.382;2023-03-14T01:38:35;5.70;99.90
28520;DHT22;15732;48.534;20.382;2023-03-14T01:41:02;5.80;99.90
28520;DHT22;15732;48.534;20.382;2023-03-14T01:43:30;5.70;99.90
28520;DHT22;15732;48.534;20.382;2023-03-14T01:48:37;5.60;99.90
28520;DHT22;15732;48.534;20.382;2023-03-14T01:51:25;5.60;99.90
28520;DHT22;15732;48.534;20.382;2023-03-14T01:53:59;5.40;99.90
28520;DHT22;15732;48.534;20.382;2023-03-14T01:56:31;5.00;99.90
28520;DHT22;15732;48.534;20.382;2023-03-14T01:58:58;5.20;99.90
28520;DHT22;15732;48.534;20.382;2023-03-14T02:01:31;5.10;99.90
28520;DHT22;15732;48.534;20.382;2023-03-14T02:04:01;5.10;99.90
28520;DHT22;15732;48.534;20.382;2023-03-14T02:06:45;5.20;99.90
28520;DHT22;15732;48.534;20.382;2023-03-14T02:09:18;5.30;99.90
28520;DHT22;15732;48.534;20.382;2023-03-14T02:11:49;5.40;99.90
28520;DHT22;15732;48.534;20.382;2023-03-14T02:14:27;5.40;99.90
28520;DHT22;15732;48.534;20.382;2023-03-14T02:17:01;5.50;99.90
28520;DHT22;15732;48.534;20.382;2023-03-14T02:22:32;5.50;99.90
28520;DHT22;15732;48.534;20.382;2023-03-14T02:27:38;5.40;99.90
28520;DHT22;15732;48.534;20.382;2023-03-14T02:30:12;5.40;99.90
28520;DHT22;15732;48.534;20.382;2023-03-14T02:32:48;5.40;99.90
28520;DHT22;15732;48.534;20.382;2023-03-14T02:35:27;5.50;99.90
28520;DHT22;15732;48.534;20.382;2023-03-14T02:40:39;5.60;99.90
28520;DHT22;15732;48.534;20.382;2023-03-14T02:43:10;5.70;99.90
28520;DHT22;15732;48.534;20.382;2023-03-14T02:45:40;5.70;99.90
28520;DHT22;15732;48.534;20.382;2023-03-14T02:48:13;5.50;99.90
28520;DHT22;15732;48.534;20.382;2023-03-14T02:50:41;5.20;99.90
28520;DHT22;15732;48.534;20.382;2023-03-14T02:53:08;5.30;99.90
28520;DHT22;15732;48.534;20.382;2023-03-14T02:55:35;5.30;99.90
28520;DHT22;15732;48.534;20.382;2023-03-14T02:58:02;5.30;99.90
28520;DHT22;15732;48.534;20.382;2023-03-14T03:00:30;5.30;99.90
28520;DHT22;15732;48.534;20.382;2023-03-14T03:03:02;5.40;99.90
28520;DHT22;15732;48.534;20.382;2023-03-14T03:05:33;5.40;99.90
28520;DHT22;15732;48.534;20.382;2023-03-14T03:07:59;5.30;99.90
28520;DHT22;15732;48.534;20.382;2023-03-14T03:10:27;5.30;99.90
28520;DHT22;15732;48.534;20.382;2023-03-14T03:12:59;5.20;99.90
28520;DHT22;15732;48.534;20.382;2023-03-14T03:15:26;5.40;99.90
28520;DHT22;15732;48.534;20.382;2023-03-14T03:17:54;5.40;99.90
28520;DHT22;15732;48.534;20.382;2023-03-14T03:20:21;5.40;99.90
28520;DHT22;15732;48.534;20.382;2023-03-14T03:22:48;5.30;99.90
28520;DHT22;15732;48.534;20.382;2023-03-14T03:25:20;5.20;99.90
28520;DHT22;15732;48.534;20.382;2023-03-14T03:27:46;5.20;99.90
28520;DHT22;15732;48.534;20.382;2023-03-14T03:30:14;5.40;99.90
28520;DHT22;15732;48.534;20.382;2023-03-14T03:32:42;5.40;99.90
28520;DHT22;15732;48.534;20.382;2023-03-14T03:35:12;5.50;99.90
28520;DHT22;15732;48.534;20.382;2023-03-14T03:37:43;5.60;99.90
28520;DHT22;15732;48.534;20.382;2023-03-14T03:40:11;5.70;99.90
28520;DHT22;15732;48.534;20.382;2023-03-14T03:42:38;5.70;99.90
28520;DHT22;15732;48.534;20.382;2023-03-14T03:45:10;5.70;99.90
28520;DHT22;15732;48.534;20.382;2023-03-14T03:47:37;5.80;99.90
28520;DHT22;15732;48.534;20.382;2023-03-14T03:50:06;5.90;99.90
28520;DHT22;15732;48.534;20.382;2023-03-14T03:52:34;5.90;99.90
28520;DHT22;15732;48.534;20.382;2023-03-14T03:55:01;6.00;99.90
28520;DHT22;15732;48.534;20.382;2023-03-14T03:57:28;6.00;99.90
28520;DHT22;15732;48.534;20.382;2023-03-14T03:59:56;6.00;99.90
28520;DHT22;15732;48.534;20.382;2023-03-14T04:02:23;6.00;99.90
28520;DHT22;15732;48.534;20.382;2023-03-14T04:04:50;6.00;99.90
28520;DHT22;15732;48.534;20.382;2023-03-14T04:07:21;6.10;99.90
28520;DHT22;15732;48.534;20.382;2023-03-14T04:09:48;6.10;99.90
28520;DHT22;15732;48.534;20.382;2023-03-14T04:12:15;6.20;99.90
28520;DHT22;15732;48.534;20.382;2023-03-14T04:14:47;6.10;99.90
28520;DHT22;15732;48.534;20.382;2023-03-14T04:17:14;6.00;99.90
28520;DHT22;15732;48.534;20.382;2023-03-14T04:19:41;6.00;99.90
28520;DHT22;15732;48.534;20.382;2023-03-14T04:22:09;5.90;99.90
28520;DHT22;15732;48.534;20.382;2023-03-14T04:24:36;5.90;99.90
28520;DHT22;15732;48.534;20.382;2023-03-14T04:27:04;5.90;99.90
28520;DHT22;15732;48.534;20.382;2023-03-14T04:29:31;5.90;99.90
28520;DHT22;15732;48.534;20.382;2023-03-14T04:31:58;5.90;99.90
28520;DHT22;15732;48.534;20.382;2023-03-14T04:34:30;5.80;99.90
28520;DHT22;15732;48.534;20.382;2023-03-14T04:36:57;5.90;99.90
28520;DHT22;15732;48.534;20.382;2023-03-14T04:39:25;5.90;99.90
28520;DHT22;15732;48.534;20.382;2023-03-14T04:41:52;6.00;99.90
28520;DHT22;15732;48.534;20.382;2023-03-14T04:44:19;6.10;99.90
28520;DHT22;15732;48.534;20.382;2023-03-14T04:46:47;6.20;99.90
28520;DHT22;15732;48.534;20.382;2023-03-14T04:49:14;6.20;99.90
28520;DHT22;15732;48.534;20.382;2023-03-14T04:51:41;6.30;99.90
28520;DHT22;15732;48.534;20.382;2023-03-14T04:54:09;6.30;99.90
28520;DHT22;15732;48.534;20.382;2023-03-14T04:56:36;6.40;99.90
28520;DHT22;15732;48.534;20.382;2023-03-14T04:59:04;6.40;99.90
28520;DHT22;15732;48.534;20.382;2023-03-14T05:01:31;6.40;99.90
28520;DHT22;15732;48.534;20.382;2023-03-14T05:03:58;6.40;99.90
28520;DHT22;15732;48.534;20.382;2023-03-14T05:06:29;6.40;99.90
28520;DHT22;15732;48.534;20.382;2023-03-14T05:09:00;6.40;99.90
28520;DHT22;15732;48.534;20.382;2023-03-14T05:11:28;6.50;99.90
28520;DHT22;15732;48.534;20.382;2023-03-14T05:13:56;6.50;99.90
28520;DHT22;15732;48.534;20.382;2023-03-14T05:16:23;6.50;99.90
28520;DHT22;15732;48.534;20.382;2023-03-14T05:18:51;6.60;99.90
28520;DHT22;15732;48.534;20.382;2023-03-14T05:21:22;6.60;99.90
28520;DHT22;15732;48.534;20.382;2023-03-14T05:23:53;6.60;99.90
28520;DHT22;15732;48.534;20.382;2023-03-14T05:26:23;6.60;99.90
28520;DHT22;15732;48.534;20.382;2023-03-14T05:28:51;6.60;99.90
28520;DHT22;15732;48.534;20.382;2023-03-14T05:31:18;6.60;99.90
28520;DHT22;15732;48.534;20.382;2023-03-14T05:33:45;6.60;99.90
28520;DHT22;15732;48.534;20.382;2023-03-14T05:36:16;6.60;99.90
28520;DHT22;15732;48.534;20.382;2023-03-14T05:38:44;6.60;99.90
28520;DHT22;15732;48.534;20.382;2023-03-14T05:41:10;6.70;99.90
28520;DHT22;15732;48.534;20.382;2023-03-14T05:43:38;6.70;99.90
28520;DHT22;15732;48.534;20.382;2023-03-14T05:46:06;6.70;99.90
28520;DHT22;15732;48.534;20.382;2023-03-14T05:48:38;6.70;99.90
28520;DHT22;15732;48.534;20.382;2023-03-14T05:51:06;6.70;99.90
28520;DHT22;15732;48.534;20.382;2023-03-14T05:53:33;6.70;99.90
28520;DHT22;15732;48.534;20.382;2023-03-14T05:56:00;6.50;99.90
28520;DHT22;15732;48.534;20.382;2023-03-14T05:58:27;6.50;99.90
28520;DHT22;15732;48.534;20.382;2023-03-14T06:00:54;6.50;99.90
28520;DHT22;15732;48.534;20.382;2023-03-14T06:03:22;6.50;99.90
28520;DHT22;15732;48.534;20.382;2023-03-14T06:05:52;6.40;99.90
28520;DHT22;15732;48.534;20.382;2023-03-14T06:08:20;6.50;99.90
28520;DHT22;15732;48.534;20.382;2023-03-14T06:10:47;6.50;99.90
28520;DHT22;15732;48.534;20.382;2023-03-14T06:13:15;6.60;99.90
28520;DHT22;15732;48.534;20.382;2023-03-14T06:15:42;6.50;99.90
28520;DHT22;15732;48.534;20.382;2023-03-14T06:18:09;6.50;99.90
28520;DHT22;15732;48.534;20.382;2023-03-14T06:20:37;6.50;99.90
28520;DHT22;15732;48.534;20.382;2023-03-14T06:23:06;6.60;99.90
28520;DHT22;15732;48.534;20.382;2023-03-14T06:25:38;6.60;99.90
28520;DHT22;15732;48.534;20.382;2023-03-14T06:28:05;6.50;99.90
28520;DHT22;15732;48.534;20.382;2023-03-14T06:30:36;6.60;99.90
28520;DHT22;15732;48.534;20.382;2023-03-14T06:33:07;6.60;99.90
28520;DHT22;15732;48.534;20.382;2023-03-14T06:35:34;6.70;99.90
28520;DHT22;15732;48.534;20.382;2023-03-14T06:38:01;6.70;99.90
28520;DHT22;15732;48.534;20.382;2023-03-14T06:40:29;6.70;99.90
28520;DHT22;15732;48.534;20.382;2023-03-14T06:42:57;6.80;99.90
28520;DHT22;15732;48.534;20.382;2023-03-14T06:45:24;6.80;99.90
28520;DHT22;15732;48.534;20.382;2023-03-14T06:47:51;6.90;99.90
28520;DHT22;15732;48.534;20.382;2023-03-14T06:50:19;6.90;99.90
28520;DHT22;15732;48.534;20.382;2023-03-14T06:52:48;6.90;99.90
28520;DHT22;15732;48.534;20.382;2023-03-14T06:55:16;6.90;99.90
28520;DHT22;15732;48.534;20.382;2023-03-14T06:57:43;7.00;99.90
28520;DHT22;15732;48.534;20.382;2023-03-14T07:00:13;7.00;99.90
28520;DHT22;15732;48.534;20.382;2023-03-14T07:07:44;7.00;99.90
28520;DHT22;15732;48.534;20.382;2023-03-14T07:10:11;7.00;99.90
28520;DHT22;15732;48.534;20.382;2023-03-14T07:12:42;7.10;99.90
28520;DHT22;15732;48.534;20.382;2023-03-14T07:15:10;7.10;99.90
28520;DHT22;15732;48.534;20.382;2023-03-14T07:17:38;7.20;99.90
28520;DHT22;15732;48.534;20.382;2023-03-14T07:20:06;7.20;99.90
28520;DHT22;15732;48.534;20.382;2023-03-14T07:22:33;7.30;99.90
28520;DHT22;15732;48.534;20.382;2023-03-14T07:25:01;7.20;99.90
28520;DHT22;15732;48.534;20.382;2023-03-14T07:27:28;7.30;99.90
28520;DHT22;15732;48.534;20.382;2023-03-14T07:29:56;7.30;99.90
28520;DHT22;15732;48.534;20.382;2023-03-14T07:32:23;7.20;99.90
28520;DHT22;15732;48.534;20.382;2023-03-14T07:34:51;7.30;99.90
28520;DHT22;15732;48.534;20.382;2023-03-14T07:37:18;7.20;99.90
28520;DHT22;15732;48.534;20.382;2023-03-14T07:39:45;7.20;99.90
28520;DHT22;15732;48.534;20.382;2023-03-14T07:42:12;7.20;99.90
28520;DHT22;15732;48.534;20.382;2023-03-14T07:44:40;7.20;99.90
28520;DHT22;15732;48.534;20.382;2023-03-14T07:47:07;7.30;99.90
28520;DHT22;15732;48.534;20.382;2023-03-14T07:49:35;7.30;99.90
28520;DHT22;15732;48.534;20.382;2023-03-14T07:52:02;7.30;99.90
28520;DHT22;15732;48.534;20.382;2023-03-14T07:54:29;7.30;99.90
28520;DHT22;15732;48.534;20.382;2023-03-14T07:56:57;7.40;99.90
28520;DHT22;15732;48.534;20.382;2023-03-14T07:59:27;7.40;99.90
28520;DHT22;15732;48.534;20.382;2023-03-14T08:01:59;7.50;99.90
28520;DHT22;15732;48.534;20.382;2023-03-14T08:04:31;7.60;99.90
28520;DHT22;15732;48.534;20.382;2023-03-14T08:06:58;7.60;99.90
28520;DHT22;15732;48.534;20.382;2023-03-14T08:09:29;7.70;99.90
28520;DHT22;15732;48.534;20.382;2023-03-14T08:11:56;7.70;99.90
28520;DHT22;15732;48.534;20.382;2023-03-14T08:14:27;7.80;99.90
28520;DHT22;15732;48.534;20.382;2023-03-14T08:16:55;7.80;99.90
28520;DHT22;15732;48.534;20.382;2023-03-14T08:19:23;7.80;99.90
28520;DHT22;15732;48.534;20.382;2023-03-14T08:21:50;7.80;99.90
28520;DHT22;15732;48.534;20.382;2023-03-14T08:24:17;7.90;99.90
28520;DHT22;15732;48.534;20.382;2023-03-14T08:26:44;7.90;99.90
28520;DHT22;15732;48.534;20.382;2023-03-14T08:29:12;7.90;99.90
28520;DHT22;15732;48.534;20.382;2023-03-14T08:31:39;8.00;99.90
28520;DHT22;15732;48.534;20.382;2023-03-14T08:34:06;8.10;99.90
28520;DHT22;15732;48.534;20.382;2023-03-14T08:36:37;8.10;99.90
28520;DHT22;15732;48.534;20.382;2023-03-14T08:39:04;8.10;99.90
28520;DHT22;15732;48.534;20.382;2023-03-14T08:41:34;8.10;99.90
28520;DHT22;15732;48.534;20.382;2023-03-14T08:44:07;8.20;99.90
28520;DHT22;15732;48.534;20.382;2023-03-14T08:46:38;8.20;99.90
28520;DHT22;15732;48.534;20.382;2023-03-14T08:49:06;8.20;99.90
28520;DHT22;15732;48.534;20.382;2023-03-14T08:51:33;8.30;99.90
28520;DHT22;15732;48.534;20.382;2023-03-14T08:54:00;8.20;99.90
28520;DHT22;15732;48.534;20.382;2023-03-14T08:56:27;8.30;99.90
28520;DHT22;15732;48.534;20.382;2023-03-14T08:58:55;8.30;99.90
28520;DHT22;15732;48.534;20.382;2023-03-14T09:01:22;8.40;99.90
28520;DHT22;15732;48.534;20.382;2023-03-14T09:03:55;8.40;99.90
28520;DHT22;15732;48.534;20.382;2023-03-14T09:06:26;8.50;99.90
28520;DHT22;15732;48.534;20.382;2023-03-14T09:08:57;8.60;99.90
28520;DHT22;15732;48.534;20.382;2023-03-14T09:11:28;8.70;99.90
28520;DHT22;15732;48.534;20.382;2023-03-14T09:13:55;8.70;99.90
28520;DHT22;15732;48.534;20.382;2023-03-14T09:16:27;8.80;99.90
28520;DHT22;15732;48.534;20.382;2023-03-14T09:18:54;8.80;99.90
28520;DHT22;15732;48.534;20.382;2023-03-14T09:21:26;8.90;99.90
28520;DHT22;15732;48.534;20.382;2023-03-14T09:23:53;8.90;99.90
28520;DHT22;15732;48.534;20.382;2023-03-14T09:26:21;9.00;99.90
28520;DHT22;15732;48.534;20.382;2023-03-14T09:28:48;9.00;99.90
28520;DHT22;15732;48.534;20.382;2023-03-14T09:31:16;9.10;99.90
28520;DHT22;15732;48.534;20.382;2023-03-14T09:33:43;9.10;99.90
28520;DHT22;15732;48.534;20.382;2023-03-14T09:36:11;9.10;99.90
28520;DHT22;15732;48.534;20.382;2023-03-14T09:38:38;9.20;99.90
28520;DHT22;15732;48.534;20.382;2023-03-14T09:41:29;9.20;99.90
28520;DHT22;15732;48.534;20.382;2023-03-14T09:44:19;9.30;99.90
28520;DHT22;15732;48.534;20.382;2023-03-14T09:46:51;9.30;99.90
28520;DHT22;15732;48.534;20.382;2023-03-14T09:51:49;9.50;99.90
28520;DHT22;15732;48.534;20.382;2023-03-14T09:54:37;9.50;99.90
28520;DHT22;15732;48.534;20.382;2023-03-14T09:57:10;9.50;99.90
28520;DHT22;15732;48.534;20.382;2023-03-14T10:00:04;9.50;99.90
28520;DHT22;15732;48.534;20.382;2023-03-14T10:02:41;9.50;99.90
28520;DHT22;15732;48.534;20.382;2023-03-14T10:05:17;9.50;99.90
28520;DHT22;15732;48.534;20.382;2023-03-14T10:07:44;9.50;99.90
28520;DHT22;15732;48.534;20.382;2023-03-14T10:10:24;9.50;99.90
28520;DHT22;15732;48.534;20.382;2023-03-14T10:13:17;9.60;99.90
28520;DHT22;15732;48.534;20.382;2023-03-14T10:15:55;9.60;99.90
28520;DHT22;15732;48.534;20.382;2023-03-14T10:18:31;9.60;99.90
28520;DHT22;15732;48.534;20.382;2023-03-14T10:21:09;9.60;99.90
28520;DHT22;15732;48.534;20.382;2023-03-14T10:23:43;9.60;99.90
28520;DHT22;15732;48.534;20.382;2023-03-14T10:26:16;9.70;99.90
28520;DHT22;15732;48.534;20.382;2023-03-14T10:28:50;9.70;99.90
28520;DHT22;15732;48.534;20.382;2023-03-14T10:31:18;9.70;99.90
28520;DHT22;15732;48.534;20.382;2023-03-14T10:34:01;9.70;99.90
28520;DHT22;15732;48.534;20.382;2023-03-14T10:36:30;9.80;99.90
28520;DHT22;15732;48.534;20.382;2023-03-14T10:41:52;9.90;99.90
28520;DHT22;15732;48.534;20.382;2023-03-14T10:44:23;10.00;99.90
28520;DHT22;15732;48.534;20.382;2023-03-14T10:46:58;10.10;99.90
28520;DHT22;15732;48.534;20.382;2023-03-14T10:49:33;10.10;99.90
28520;DHT22;15732;48.534;20.382;2023-03-14T10:52:14;10.20;99.90
28520;DHT22;15732;48.534;20.382;2023-03-14T10:54:53;10.20;99.90
28520;DHT22;15732;48.534;20.382;2023-03-14T10:57:20;10.20;99.90
28520;DHT22;15732;48.534;20.382;2023-03-14T10:59:48;10.20;99.90
28520;DHT22;15732;48.534;20.382;2023-03-14T11:05:44;10.40;99.90
28520;DHT22;15732;48.534;20.382;2023-03-14T11:08:25;10.50;99.90
28520;DHT22;15732;48.534;20.382;2023-03-14T11:11:15;10.60;99.90
28520;DHT22;15732;48.534;20.382;2023-03-14T11:22:27;10.80;99.90
28520;DHT22;15732;48.534;20.382;2023-03-14T11:30:54;11.10;99.90
28520;DHT22;15732;48.534;20.382;2023-03-14T11:33:25;11.10;99.90
28520;DHT22;15732;48.534;20.382;2023-03-14T11:36:33;11.10;99.90
28520;DHT22;15732;48.534;20.382;2023-03-14T11:39:14;11.20;99.90
28520;DHT22;15732;48.534;20.382;2023-03-14T11:41:47;11.30;99.90
28520;DHT22;15732;48.534;20.382;2023-03-14T11:44:19;11.30;99.90
28520;DHT22;15732;48.534;20.382;2023-03-14T11:47:24;11.40;99.90
28520;DHT22;15732;48.534;20.382;2023-03-14T11:49:56;11.40;99.90
28520;DHT22;15732;48.534;20.382;2023-03-14T11:52:36;11.50;99.90
28520;DHT22;15732;48.534;20.382;2023-03-14T11:57:40;11.50;99.90
28520;DHT22;15732;48.534;20.382;2023-03-14T12:00:23;11.60;99.90
28520;DHT22;15732;48.534;20.382;2023-03-14T12:10:48;11.80;99.90
28520;DHT22;15732;48.534;20.382;2023-03-14T12:13:19;11.90;99.90
28520;DHT22;15732;48.534;20.382;2023-03-14T12:15:58;11.80;99.90
28520;DHT22;15732;48.534;20.382;2023-03-14T12:18:36;11.90;99.90
28520;DHT22;15732;48.534;20.382;2023-03-14T12:21:10;11.90;99.90
28520;DHT22;15732;48.534;20.382;2023-03-14T12:23:52;12.00;99.90
28520;DHT22;15732;48.534;20.382;2023-03-14T12:26:28;12.00;99.90
28520;DHT22;15732;48.534;20.382;2023-03-14T12:29:16;12.10;99.90
28520;DHT22;15732;48.534;20.382;2023-03-14T12:31:45;12.10;99.90
28520;DHT22;15732;48.534;20.382;2023-03-14T12:39:39;12.30;99.90
28520;DHT22;15732;48.534;20.382;2023-03-14T12:42:37;12.40;99.90
28520;DHT22;15732;48.534;20.382;2023-03-14T12:45:22;12.50;99.90
28520;DHT22;15732;48.534;20.382;2023-03-14T12:47:54;12.60;99.90
28520;DHT22;15732;48.534;20.382;2023-03-14T12:50:31;12.60;99.90
28520;DHT22;15732;48.534;20.382;2023-03-14T12:55:45;12.80;99.90
28520;DHT22;15732;48.534;20.382;2023-03-14T13:01:15;12.90;99.90
28520;DHT22;15732;48.534;20.382;2023-03-14T13:04:09;12.90;99.90
28520;DHT22;15732;48.534;20.382;2023-03-14T13:07:13;13.00;99.90
28520;DHT22;15732;48.534;20.382;2023-03-14T13:12:30;13.00;99.90
28520;DHT22;15732;48.534;20.382;2023-03-14T13:15:11;13.00;99.90
28520;DHT22;15732;48.534;20.382;2023-03-14T13:17:41;13.00;99.90
28520;DHT22;15732;48.534;20.382;2023-03-14T13:20:30;13.00;99.90
28520;DHT22;15732;48.534;20.382;2023-03-14T13:22:57;13.00;99.90
28520;DHT22;15732;48.534;20.382;2023-03-14T13:25:30;13.00;99.90
28520;DHT22;15732;48.534;20.382;2023-03-14T13:27:58;13.00;99.90
28520;DHT22;15732;48.534;20.382;2023-03-14T13:30:28;13.00;99.90
28520;DHT22;15732;48.534;20.382;2023-03-14T13:32:55;13.00;99.90
28520;DHT22;15732;48.534;20.382;2023-03-14T13:35:29;13.00;99.90
28520;DHT22;15732;48.534;20.382;2023-03-14T13:38:04;12.90;99.90
28520;DHT22;15732;48.534;20.382;2023-03-14T13:40:35;12.90;99.90
28520;DHT22;15732;48.534;20.382;2023-03-14T13:48:16;12.80;99.90
28520;DHT22;15732;48.534;20.382;2023-03-14T13:50:51;12.70;99.90
28520;DHT22;15732;48.534;20.382;2023-03-14T13:53:18;12.70;99.90
28520;DHT22;15732;48.534;20.382;2023-03-14T13:55:45;12.60;99.90
28520;DHT22;15732;48.534;20.382;2023-03-14T13:58:27;12.60;99.90
28520;DHT22;15732;48.534;20.382;2023-03-14T14:00:57;12.50;99.90
28520;DHT22;15732;48.534;20.382;2023-03-14T14:03:24;12.50;99.90
28520;DHT22;15732;48.534;20.382;2023-03-14T14:05:55;12.50;99.90
28520;DHT22;15732;48.534;20.382;2023-03-14T14:08:24;12.40;99.90
28520;DHT22;15732;48.534;20.382;2023-03-14T14:10:59;12.40;99.90
28520;DHT22;15732;48.534;20.382;2023-03-14T14:13:32;12.40;99.90
28520;DHT22;15732;48.534;20.382;2023-03-14T14:16:01;12.30;99.90
28520;DHT22;15732;48.534;20.382;2023-03-14T14:18:31;12.30;99.90
28520;DHT22;15732;48.534;20.382;2023-03-14T14:21:00;12.30;99.90
28520;DHT22;15732;48.534;20.382;2023-03-14T14:23:29;12.30;99.90
28520;DHT22;15732;48.534;20.382;2023-03-14T14:25:58;12.20;99.90
28520;DHT22;15732;48.534;20.382;2023-03-14T14:28:35;12.20;99.90
28520;DHT22;15732;48.534;20.382;2023-03-14T14:31:06;12.20;99.90
28520;DHT22;15732;48.534;20.382;2023-03-14T14:34:02;12.20;99.90
28520;DHT22;15732;48.534;20.382;2023-03-14T14:36:44;12.20;99.90
28520;DHT22;15732;48.534;20.382;2023-03-14T14:39:24;12.20;99.90
28520;DHT22;15732;48.534;20.382;2023-03-14T14:41:53;12.20;99.90
28520;DHT22;15732;48.534;20.382;2023-03-14T14:44:32;12.20;99.90
28520;DHT22;15732;48.534;20.382;2023-03-14T14:47:02;12.20;99.90
28520;DHT22;15732;48.534;20.382;2023-03-14T14:49:31;12.20;99.90
28520;DHT22;15732;48.534;20.382;2023-03-14T14:52:09;12.20;99.90
28520;DHT22;15732;48.534;20.382;2023-03-14T14:54:51;12.10;99.90
28520;DHT22;15732;48.534;20.382;2023-03-14T14:57:33;12.20;99.90
28520;DHT22;15732;48.534;20.382;2023-03-14T15:00:25;12.10;99.90
28520;DHT22;15732;48.534;20.382;2023-03-14T15:02:54;12.10;99.90
28520;DHT22;15732;48.534;20.382;2023-03-14T15:05:25;12.00;99.90
28520;DHT22;15732;48.534;20.382;2023-03-14T15:07:53;12.00;99.90
28520;DHT22;15732;48.534;20.382;2023-03-14T15:10:22;12.00;99.90
28520;DHT22;15732;48.534;20.382;2023-03-14T15:12:49;12.00;99.90
28520;DHT22;15732;48.534;20.382;2023-03-14T15:15:18;12.00;99.90
28520;DHT22;15732;48.534;20.382;2023-03-14T15:17:49;11.90;99.90
28520;DHT22;15732;48.534;20.382;2023-03-14T15:20:20;11.90;99.90
28520;DHT22;15732;48.534;20.382;2023-03-14T15:22:50;11.90;99.90
28520;DHT22;15732;48.534;20.382;2023-03-14T15:25:17;11.90;99.90
28520;DHT22;15732;48.534;20.382;2023-03-14T15:27:44;11.80;99.90
28520;DHT22;15732;48.534;20.382;2023-03-14T15:30:31;11.80;99.90
28520;DHT22;15732;48.534;20.382;2023-03-14T15:32:59;11.80;99.90
28520;DHT22;15732;48.534;20.382;2023-03-14T15:35:26;11.80;99.90
28520;DHT22;15732;48.534;20.382;2023-03-14T15:37:54;11.80;99.90
28520;DHT22;15732;48.534;20.382;2023-03-14T15:40:22;11.70;99.90
28520;DHT22;15732;48.534;20.382;2023-03-14T15:42:50;11.70;99.90
28520;DHT22;15732;48.534;20.382;2023-03-14T15:45:18;11.80;99.90
28520;DHT22;15732;48.534;20.382;2023-03-14T15:47:45;11.80;99.90
28520;DHT22;15732;48.534;20.382;2023-03-14T15:50:12;11.80;99.90
28520;DHT22;15732;48.534;20.382;2023-03-14T15:52:40;11.80;99.90
28520;DHT22;15732;48.534;20.382;2023-03-14T15:55:08;11.80;99.90
28520;DHT22;15732;48.534;20.382;2023-03-14T15:57:36;11.80;99.90
28520;DHT22;15732;48.534;20.382;2023-03-14T16:00:03;11.80;99.90
28520;DHT22;15732;48.534;20.382;2023-03-14T16:02:35;11.70;99.90
28520;DHT22;15732;48.534;20.382;2023-03-14T16:05:08;11.70;99.90
28520;DHT22;15732;48.534;20.382;2023-03-14T16:07:36;11.70;99.90
28520;DHT22;15732;48.534;20.382;2023-03-14T16:10:05;11.70;99.90
28520;DHT22;15732;48.534;20.382;2023-03-14T16:12:32;11.70;99.90
28520;DHT22;15732;48.534;20.382;2023-03-14T16:15:00;11.70;99.90
28520;DHT22;15732;48.534;20.382;2023-03-14T16:17:27;11.60;99.90
28520;DHT22;15732;48.534;20.382;2023-03-14T16:19:59;11.60;99.90
28520;DHT22;15732;48.534;20.382;2023-03-14T16:22:26;11.60;99.90
28520;DHT22;15732;48.534;20.382;2023-03-14T16:24:53;11.60;99.90
28520;DHT22;15732;48.534;20.382;2023-03-14T16:27:21;11.60;99.90
28520;DHT22;15732;48.534;20.382;2023-03-14T16:29:52;11.60;99.90
28520;DHT22;15732;48.534;20.382;2023-03-14T16:32:23;11.60;99.90
28520;DHT22;15732;48.534;20.382;2023-03-14T16:34:51;11.50;99.90
28520;DHT22;15732;48.534;20.382;2023-03-14T16:37:18;11.50;99.90
28520;DHT22;15732;48.534;20.382;2023-03-14T16:39:47;11.50;99.90
28520;DHT22;15732;48.534;20.382;2023-03-14T16:42:15;11.50;99.90
28520;DHT22;15732;48.534;20.382;2023-03-14T16:44:42;11.50;99.90
28520;DHT22;15732;48.534;20.382;2023-03-14T16:47:10;11.50;99.90
28520;DHT22;15732;48.534;20.382;2023-03-14T16:49:37;11.50;99.90
28520;DHT22;15732;48.534;20.382;2023-03-14T16:52:05;11.50;99.90
28520;DHT22;15732;48.534;20.382;2023-03-14T16:54:32;11.40;99.90
28520;DHT22;15732;48.534;20.382;2023-03-14T16:57:03;11.40;99.90